Time;durP1;ratioP1;P1;durP2;ratioP2;P2;SDS_P1;SDS_P2;PMS_P1;PMS_P2;Temp;Humidity;BMP_temperature;BMP_pressure;BME280_temperature;BME280_humidity;BME280_pressure;Samples;Min_cycle;Max_cycle;Signal;HPM_P1;HPM_P2
2023/06/05 00:00:36;;;;;;;1.42;0.95;;;;;;;;;;5106028;28;20415;-66
2023/06/05 00:03:04;;;;;;;3.42;1.23;;;;;;;;;;5106830;28;20059;-67
2023/06/05 00:05:31;;;;;;;2.83;1.30;;;;;;;;;;5109129;28;20043;-67
2023/06/05 00:07:58;;;;;;;2.90;1.42;;;;;;;;;;5105819;28;20058;-66
2023/06/05 00:10:25;;;;;;;2.72;1.60;;;;;;;;;;5103340;28;20044;-66
2023/06/05 00:12:53;;;;;;;2.83;1.50;;;;;;;;;;5105628;28;20059;-66
2023/06/05 00:15:21;;;;;;;2.15;1.55;;;;;;;;;;5103201;28;20550;-67
2023/06/05 00:17:48;;;;;;;1.60;1.25;;;;;;;;;;5101197;28;20048;-66
2023/06/05 00:20:16;;;;;;;2.67;1.60;;;;;;;;;;5104623;28;20490;-67
2023/06/05 00:22:44;;;;;;;2.17;1.50;;;;;;;;;;5095492;28;20044;-66
2023/06/05 00:25:12;;;;;;;3.75;1.45;;;;;;;;;;5082606;28;20051;-66
2023/06/05 00:27:40;;;;;;;2.92;1.50;;;;;;;;;;5108401;28;20048;-67
2023/06/05 00:30:08;;;;;;;3.00;1.52;;;;;;;;;;5102557;27;20047;-66
2023/06/05 00:32:37;;;;;;;1.73;1.38;;;;;;;;;;5083275;28;20384;-66
2023/06/05 00:35:04;;;;;;;1.20;0.95;;;;;;;;;;5101729;28;20130;-66
2023/06/05 00:37:33;;;;;;;2.10;1.27;;;;;;;;;;5104350;28;20067;-66
2023/06/05 00:40:00;;;;;;;2.75;1.30;;;;;;;;;;5106021;28;20083;-67
2023/06/05 00:42:27;;;;;;;1.67;1.30;;;;;;;;;;5108958;28;20043;-67
2023/06/05 00:44:55;;;;;;;2.00;1.40;;;;;;;;;;5104149;28;21118;-67
2023/06/05 00:47:22;;;;;;;1.60;1.20;;;;;;;;;;5103507;28;20088;-66
2023/06/05 00:49:51;;;;;;;1.80;1.17;;;;;;;;;;5084181;28;20051;-67
2023/06/05 00:52:18;;;;;;;1.95;1.20;;;;;;;;;;5100126;28;20047;-66
2023/06/05 00:54:46;;;;;;;1.45;1.23;;;;;;;;;;5087791;28;20040;-67
2023/06/05 00:57:13;;;;;;;2.22;1.40;;;;;;;;;;5105081;28;20054;-67
2023/06/05 00:59:44;;;;;;;1.67;1.10;;;;;;;;;;5101264;28;20055;-67
2023/06/05 01:02:12;;;;;;;2.60;1.30;;;;;;;;;;5100169;28;20478;-67
2023/06/05 01:04:40;;;;;;;1.63;1.10;;;;;;;;;;5106962;28;20047;-66
2023/06/05 01:07:10;;;;;;;1.70;1.17;;;;;;;;;;5103896;28;20056;-67
2023/06/05 01:09:38;;;;;;;1.98;1.20;;;;;;;;;;5090901;28;20040;-66
2023/06/05 01:12:09;;;;;;;2.58;1.40;;;;;;;;;;5103640;28;20056;-66
2023/06/05 01:14:40;;;;;;;1.65;1.10;;;;;;;;;;5107067;28;20035;-66
2023/06/05 01:17:10;;;;;;;1.48;0.88;;;;;;;;;;5105572;28;20101;-66
2023/06/05 01:19:39;;;;;;;1.85;1.00;;;;;;;;;;5103751;28;20611;-67
2023/06/05 01:22:06;;;;;;;1.20;0.90;;;;;;;;;;5106171;28;20438;-67
2023/06/05 01:24:35;;;;;;;2.47;0.95;;;;;;;;;;5103304;28;20123;-67
2023/06/05 01:27:07;;;;;;;1.42;1.08;;;;;;;;;;5101901;28;20124;-66
2023/06/05 01:29:37;;;;;;;1.70;1.05;;;;;;;;;;5105226;28;20048;-67
2023/06/05 01:32:07;;;;;;;1.13;0.95;;;;;;;;;;5106790;28;20052;-66
2023/06/05 01:34:35;;;;;;;1.33;1.00;;;;;;;;;;5107096;28;20047;-67
2023/06/05 01:37:03;;;;;;;1.38;1.00;;;;;;;;;;5110919;28;20062;-66
2023/06/05 01:39:31;;;;;;;2.63;1.20;;;;;;;;;;5107159;28;20055;-67
2023/06/05 01:42:00;;;;;;;1.30;1.10;;;;;;;;;;5101418;28;20044;-67
2023/06/05 01:44:28;;;;;;;1.17;0.93;;;;;;;;;;5110742;28;20051;-67
2023/06/05 01:46:55;;;;;;;2.08;1.08;;;;;;;;;;5105174;27;20150;-66
2023/06/05 01:49:23;;;;;;;1.00;0.80;;;;;;;;;;5105946;28;20072;-67
2023/06/05 01:51:50;;;;;;;0.95;0.70;;;;;;;;;;5110249;28;20043;-66
2023/06/05 01:54:18;;;;;;;0.85;0.80;;;;;;;;;;5103700;27;20045;-67
2023/06/05 01:56:47;;;;;;;1.65;1.00;;;;;;;;;;5086945;28;20097;-66
2023/06/05 01:59:16;;;;;;;1.67;0.95;;;;;;;;;;5107056;28;20077;-66
2023/06/05 02:01:45;;;;;;;1.00;0.80;;;;;;;;;;5110441;27;20054;-66
2023/06/05 02:04:16;;;;;;;0.98;0.80;;;;;;;;;;5110189;28;20040;-67
2023/06/05 02:06:44;;;;;;;1.70;1.10;;;;;;;;;;5111310;28;20399;-66
2023/06/05 02:09:12;;;;;;;1.38;1.00;;;;;;;;;;5107300;28;20048;-66
2023/06/05 02:11:42;;;;;;;1.85;1.23;;;;;;;;;;5105359;28;20397;-67
2023/06/05 02:14:12;;;;;;;1.50;1.23;;;;;;;;;;5110825;28;20372;-67
2023/06/05 02:16:41;;;;;;;2.13;1.30;;;;;;;;;;5110389;28;20048;-66
2023/06/05 02:19:08;;;;;;;1.25;0.95;;;;;;;;;;5109586;28;20487;-66
2023/06/05 02:21:36;;;;;;;1.88;1.20;;;;;;;;;;5110392;28;20055;-66
2023/06/05 02:24:03;;;;;;;1.92;1.00;;;;;;;;;;5106870;28;20094;-66
2023/06/05 02:26:30;;;;;;;1.55;1.17;;;;;;;;;;5106505;28;20051;-67
2023/06/05 02:28:58;;;;;;;3.83;1.45;;;;;;;;;;5103539;27;20268;-67
2023/06/05 02:31:28;;;;;;;3.60;1.50;;;;;;;;;;5084632;28;20055;-66
2023/06/05 02:33:57;;;;;;;2.63;1.40;;;;;;;;;;5104753;28;20055;-67
2023/06/05 02:36:24;;;;;;;2.00;1.25;;;;;;;;;;5090210;28;20399;-66
2023/06/05 02:38:52;;;;;;;2.30;1.45;;;;;;;;;;5103883;28;20108;-66
2023/06/05 02:41:21;;;;;;;2.22;1.50;;;;;;;;;;5103291;28;20058;-66
2023/06/05 02:43:48;;;;;;;2.20;1.55;;;;;;;;;;5107877;28;20503;-66
2023/06/05 02:46:15;;;;;;;2.20;1.60;;;;;;;;;;5108747;28;20054;-66
2023/06/05 02:48:43;;;;;;;2.47;1.90;;;;;;;;;;5102828;28;20062;-66
2023/06/05 02:51:11;;;;;;;3.17;2.10;;;;;;;;;;5111273;28;20517;-66
2023/06/05 02:53:39;;;;;;;3.08;1.95;;;;;;;;;;5110275;28;20502;-66
2023/06/05 02:56:06;;;;;;;3.47;2.28;;;;;;;;;;5110215;28;20048;-66
2023/06/05 02:58:34;;;;;;;4.63;2.40;;;;;;;;;;5107599;28;20478;-66
2023/06/05 03:01:02;;;;;;;2.55;2.08;;;;;;;;;;5111136;28;20129;-67
2023/06/05 03:03:30;;;;;;;2.10;1.42;;;;;;;;;;5108221;28;20039;-66
2023/06/05 03:06:03;;;;;;;2.42;1.20;;;;;;;;;;5109927;28;20044;-66
2023/06/05 03:08:30;;;;;;;;;;;;;;;;;;5105545;28;20097;-67
2023/06/05 03:10:59;;;;;;;1.38;1.20;;;;;;;;;;5107861;28;19919;-66
2023/06/05 03:13:26;;;;;;;3.30;1.60;;;;;;;;;;5109403;28;20430;-66
2023/06/05 03:15:56;;;;;;;2.42;1.13;;;;;;;;;;5099688;28;20048;-66
2023/06/05 03:18:24;;;;;;;1.58;1.15;;;;;;;;;;5101289;28;20067;-67
2023/06/05 03:20:54;;;;;;;1.60;1.30;;;;;;;;;;5102009;28;20430;-66
2023/06/05 03:23:21;;;;;;;4.22;1.27;;;;;;;;;;5108992;28;20054;-67
2023/06/05 03:25:49;;;;;;;2.15;1.50;;;;;;;;;;5105091;27;20044;-66
2023/06/05 03:28:17;;;;;;;1.80;1.40;;;;;;;;;;5108465;28;20050;-66
2023/06/05 03:30:45;;;;;;;2.92;1.52;;;;;;;;;;5107168;28;20079;-66
2023/06/05 03:33:13;;;;;;;2.47;1.30;;;;;;;;;;5110992;28;20059;-67
2023/06/05 03:35:41;;;;;;;3.30;1.58;;;;;;;;;;5105638;28;20130;-66
2023/06/05 03:38:08;;;;;;;2.10;1.60;;;;;;;;;;5090679;28;20134;-66
2023/06/05 03:40:35;;;;;;;1.90;1.35;;;;;;;;;;5082783;28;20052;-66
2023/06/05 03:43:02;;;;;;;1.77;1.20;;;;;;;;;;5107994;28;20511;-66
2023/06/05 03:45:31;;;;;;;4.65;1.30;;;;;;;;;;5108210;28;20051;-66
2023/06/05 03:47:59;;;;;;;1.35;1.02;;;;;;;;;;5102895;28;20078;-66
2023/06/05 03:50:28;;;;;;;1.90;1.23;;;;;;;;;;5103674;28;20054;-66
2023/06/05 03:53:02;;;;;;;2.72;1.05;;;;;;;;;;5104505;28;20406;-66
2023/06/05 03:55:40;;;;;;;2.35;1.10;;;;;;;;;;5107078;27;20040;-67
2023/06/05 03:58:08;;;;;;;2.00;1.23;;;;;;;;;;5102553;28;20062;-67
2023/06/05 04:00:36;;;;;;;3.33;1.17;;;;;;;;;;5103847;28;20124;-66
2023/06/05 04:03:04;;;;;;;1.48;0.95;;;;;;;;;;5089745;28;20567;-66
2023/06/05 04:05:32;;;;;;;1.63;1.00;;;;;;;;;;5100060;28;20501;-66
2023/06/05 04:07:59;;;;;;;1.85;1.10;;;;;;;;;;5104390;28;20065;-67
2023/06/05 04:10:26;;;;;;;1.98;1.00;;;;;;;;;;5105421;28;20048;-66
2023/06/05 04:12:53;;;;;;;1.75;1.00;;;;;;;;;;5107241;28;20135;-66
2023/06/05 04:15:21;;;;;;;1.58;1.13;;;;;;;;;;5102436;28;20051;-66
2023/06/05 04:17:49;;;;;;;1.15;0.80;;;;;;;;;;5109678;28;20079;-67
2023/06/05 04:20:17;;;;;;;1.65;1.08;;;;;;;;;;5104751;28;20044;-67
2023/06/05 04:22:44;;;;;;;1.10;1.00;;;;;;;;;;5100601;28;20055;-67
2023/06/05 04:25:12;;;;;;;1.08;0.80;;;;;;;;;;5105223;28;20127;-66
2023/06/05 04:27:40;;;;;;;2.55;1.00;;;;;;;;;;5094633;28;20043;-66
2023/06/05 04:30:08;;;;;;;2.33;0.90;;;;;;;;;;5108836;28;20047;-66
2023/06/05 04:32:38;;;;;;;2.28;1.05;;;;;;;;;;5106298;28;20052;-66
2023/06/05 04:35:08;;;;;;;1.58;1.00;;;;;;;;;;5100538;28;20510;-66
2023/06/05 04:37:36;;;;;;;2.35;1.20;;;;;;;;;;5107295;28;20777;-66
2023/06/05 04:40:05;;;;;;;1.10;0.85;;;;;;;;;;5104604;28;20062;-67
2023/06/05 04:42:33;;;;;;;1.17;0.80;;;;;;;;;;5107402;28;20521;-67
2023/06/05 04:45:03;;;;;;;1.80;0.90;;;;;;;;;;5105783;28;20059;-67
2023/06/05 04:47:30;;;;;;;1.42;0.90;;;;;;;;;;5100169;28;20077;-66
2023/06/05 04:49:59;;;;;;;1.63;0.98;;;;;;;;;;5108311;28;20790;-67
2023/06/05 04:52:29;;;;;;;2.10;1.20;;;;;;;;;;5107201;28;20048;-67
2023/06/05 04:54:56;;;;;;;1.77;1.08;;;;;;;;;;5103594;28;20328;-66
2023/06/05 04:57:25;;;;;;;3.28;1.10;;;;;;;;;;5102689;28;20040;-66
2023/06/05 04:59:53;;;;;;;1.83;1.10;;;;;;;;;;5100721;28;20048;-66
2023/06/05 05:02:20;;;;;;;2.13;1.00;;;;;;;;;;5101116;28;20123;-67
2023/06/05 05:04:48;;;;;;;2.38;1.45;;;;;;;;;;5101072;28;20062;-66
2023/06/05 05:07:16;;;;;;;1.95;1.27;;;;;;;;;;5109309;28;20063;-66
2023/06/05 05:09:45;;;;;;;2.83;1.30;;;;;;;;;;5108556;28;20062;-66
2023/06/05 05:12:13;;;;;;;1.73;1.38;;;;;;;;;;5111449;28;20051;-67
2023/06/05 05:14:41;;;;;;;2.08;1.25;;;;;;;;;;5109737;28;20066;-66
2023/06/05 05:17:08;;;;;;;3.30;1.48;;;;;;;;;;5107158;28;20104;-67
2023/06/05 05:19:35;;;;;;;4.60;1.70;;;;;;;;;;5110529;28;20047;-67
2023/06/05 05:22:02;;;;;;;2.10;1.33;;;;;;;;;;5102804;28;20122;-66
2023/06/05 05:24:30;;;;;;;2.58;1.63;;;;;;;;;;5113105;28;20062;-66
2023/06/05 05:26:58;;;;;;;2.45;1.27;;;;;;;;;;5107747;28;20820;-66
2023/06/05 05:29:26;;;;;;;2.13;1.40;;;;;;;;;;5105149;28;20058;-67
2023/06/05 05:31:53;;;;;;;2.60;1.40;;;;;;;;;;5111348;27;20047;-68
2023/06/05 05:34:22;;;;;;;2.80;1.75;;;;;;;;;;5109593;28;20071;-67
2023/06/05 05:36:49;;;;;;;2.63;1.80;;;;;;;;;;5104368;28;20571;-67
2023/06/05 05:39:16;;;;;;;2.53;1.75;;;;;;;;;;5111599;28;20116;-67
2023/06/05 05:41:44;;;;;;;2.58;1.40;;;;;;;;;;5111061;28;20525;-66
2023/06/05 05:44:12;;;;;;;3.63;1.52;;;;;;;;;;5102401;28;20047;-67
2023/06/05 05:46:39;;;;;;;3.55;1.30;;;;;;;;;;5110269;28;20047;-67
2023/06/05 05:49:07;;;;;;;2.75;1.27;;;;;;;;;;5111428;28;20379;-67
2023/06/05 05:51:34;;;;;;;2.10;1.40;;;;;;;;;;5108309;28;20905;-66
2023/06/05 05:54:01;;;;;;;1.80;1.20;;;;;;;;;;5108776;27;20059;-66
2023/06/05 05:56:29;;;;;;;2.67;1.30;;;;;;;;;;5104141;27;20054;-67
2023/06/05 05:58:56;;;;;;;3.70;1.60;;;;;;;;;;5111656;28;20079;-66
2023/06/05 06:01:24;;;;;;;3.00;1.60;;;;;;;;;;5110795;28;20150;-66
2023/06/05 06:03:52;;;;;;;2.55;1.65;;;;;;;;;;5107287;28;20498;-66
2023/06/05 06:06:20;;;;;;;4.47;1.75;;;;;;;;;;5113747;27;20134;-67
2023/06/05 06:08:48;;;;;;;2.95;1.48;;;;;;;;;;5107034;27;20047;-66
2023/06/05 06:11:16;;;;;;;4.82;1.58;;;;;;;;;;5105920;28;20051;-67
2023/06/05 06:13:43;;;;;;;2.75;1.98;;;;;;;;;;5111152;28;20086;-66
2023/06/05 06:16:11;;;;;;;3.08;1.75;;;;;;;;;;5108769;28;20051;-66
2023/06/05 06:18:40;;;;;;;2.30;1.52;;;;;;;;;;5106684;28;20379;-67
2023/06/05 06:21:07;;;;;;;1.85;1.20;;;;;;;;;;5109669;28;20503;-66
2023/06/05 06:23:34;;;;;;;2.40;1.50;;;;;;;;;;5112687;27;20040;-66
2023/06/05 06:26:06;;;;;;;2.67;1.67;;;;;;;;;;5104130;27;20117;-67
2023/06/05 06:28:33;;;;;;;3.35;2.25;;;;;;;;;;5102085;28;20044;-66
2023/06/05 06:31:00;;;;;;;4.68;1.73;;;;;;;;;;5105536;28;20043;-66
2023/06/05 06:33:29;;;;;;;2.05;1.40;;;;;;;;;;5109123;27;20134;-66
2023/06/05 06:35:58;;;;;;;2.80;1.30;;;;;;;;;;5110721;28;20093;-66
2023/06/05 06:38:29;;;;;;;2.78;1.40;;;;;;;;;;5082675;28;20148;-66
2023/06/05 06:40:57;;;;;;;1.60;1.10;;;;;;;;;;5102967;28;20105;-67
2023/06/05 06:43:24;;;;;;;4.18;1.60;;;;;;;;;;5107957;28;20087;-66
2023/06/05 06:45:52;;;;;;;2.28;1.17;;;;;;;;;;5109458;27;20046;-67
2023/06/05 06:48:19;;;;;;;1.70;1.40;;;;;;;;;;5110543;28;20055;-67
2023/06/05 06:50:47;;;;;;;1.65;1.20;;;;;;;;;;5111685;28;20055;-67
2023/06/05 06:53:15;;;;;;;2.75;1.58;;;;;;;;;;5111979;28;20075;-67
2023/06/05 06:55:43;;;;;;;3.70;1.40;;;;;;;;;;5102122;27;20051;-66
2023/06/05 06:58:10;;;;;;;2.88;1.42;;;;;;;;;;5105531;28;20075;-66
2023/06/05 07:00:37;;;;;;;2.33;1.30;;;;;;;;;;5111278;28;20395;-66
2023/06/05 07:03:05;;;;;;;3.20;1.50;;;;;;;;;;5092417;28;20063;-66
2023/06/05 07:05:32;;;;;;;2.20;1.58;;;;;;;;;;5103733;28;20040;-66
2023/06/05 07:08:00;;;;;;;2.38;1.30;;;;;;;;;;5104781;28;20043;-67
2023/06/05 07:10:29;;;;;;;2.55;1.50;;;;;;;;;;5111943;27;20059;-67
2023/06/05 07:12:57;;;;;;;2.15;1.40;;;;;;;;;;5105661;27;20503;-66
2023/06/05 07:15:24;;;;;;;2.03;1.23;;;;;;;;;;5107015;28;20043;-66
2023/06/05 07:17:52;;;;;;;2.17;1.40;;;;;;;;;;5101375;28;20111;-67
2023/06/05 07:20:19;;;;;;;1.90;1.23;;;;;;;;;;5107305;28;20047;-67
2023/06/05 07:22:46;;;;;;;2.17;1.13;;;;;;;;;;5101792;28;20130;-66
2023/06/05 07:25:15;;;;;;;4.15;1.60;;;;;;;;;;5110274;27;20398;-66
2023/06/05 07:27:45;;;;;;;2.08;1.10;;;;;;;;;;5108831;27;20043;-66
2023/06/05 07:30:13;;;;;;;1.60;1.20;;;;;;;;;;5108553;27;20139;-66
2023/06/05 07:32:42;;;;;;;1.90;1.40;;;;;;;;;;5099857;27;20048;-66
2023/06/05 07:35:10;;;;;;;3.83;1.40;;;;;;;;;;5105036;27;20112;-67
2023/06/05 07:37:37;;;;;;;1.58;1.25;;;;;;;;;;5109969;28;20074;-66
2023/06/05 07:40:05;;;;;;;3.55;1.27;;;;;;;;;;5105172;28;20104;-67
2023/06/05 07:42:32;;;;;;;2.20;1.40;;;;;;;;;;5104333;28;21990;-66
2023/06/05 07:45:01;;;;;;;2.75;1.40;;;;;;;;;;5087635;27;20092;-67
2023/06/05 07:47:28;;;;;;;4.47;1.75;;;;;;;;;;5107551;28;20753;-66
2023/06/05 07:49:59;;;;;;;2.38;1.50;;;;;;;;;;5105900;28;20070;-66
2023/06/05 07:52:27;;;;;;;3.00;1.90;;;;;;;;;;5109668;28;20444;-67
2023/06/05 07:54:54;;;;;;;2.22;1.45;;;;;;;;;;5108469;27;20439;-67
2023/06/05 07:57:23;;;;;;;2.22;1.20;;;;;;;;;;5091681;28;20044;-66
2023/06/05 07:59:52;;;;;;;2.30;1.38;;;;;;;;;;5108570;28;20077;-66
2023/06/05 08:02:21;;;;;;;2.10;1.38;;;;;;;;;;5109787;27;20048;-66
2023/06/05 08:04:48;;;;;;;2.83;1.35;;;;;;;;;;5102114;28;20047;-67
2023/06/05 08:07:15;;;;;;;2.15;1.45;;;;;;;;;;5100291;28;20135;-66
2023/06/05 08:09:43;;;;;;;1.65;1.38;;;;;;;;;;5099099;28;20082;-66
2023/06/05 08:12:10;;;;;;;2.42;1.30;;;;;;;;;;5109655;28;20437;-66
2023/06/05 08:14:37;;;;;;;1.90;1.38;;;;;;;;;;5088822;28;20137;-66
2023/06/05 08:17:05;;;;;;;3.05;1.73;;;;;;;;;;5101725;28;20056;-67
2023/06/05 08:19:33;;;;;;;2.30;1.30;;;;;;;;;;5092703;28;20055;-66
2023/06/05 08:22:01;;;;;;;2.22;1.40;;;;;;;;;;5108071;28;20051;-66
2023/06/05 08:24:29;;;;;;;1.95;1.55;;;;;;;;;;5105681;28;20051;-67
2023/06/05 08:26:56;;;;;;;2.90;1.58;;;;;;;;;;5104922;27;20049;-66
2023/06/05 08:29:23;;;;;;;2.13;1.52;;;;;;;;;;5106965;28;20043;-67
2023/06/05 08:31:50;;;;;;;3.22;1.50;;;;;;;;;;5107007;27;20066;-67
2023/06/05 08:34:18;;;;;;;2.60;1.52;;;;;;;;;;5109194;27;20055;-66
2023/06/05 08:36:46;;;;;;;1.92;1.20;;;;;;;;;;5088254;28;20138;-67
2023/06/05 08:39:14;;;;;;;3.40;1.67;;;;;;;;;;5109023;28;20140;-66
2023/06/05 08:41:41;;;;;;;3.10;1.75;;;;;;;;;;5086510;28;20046;-67
2023/06/05 08:44:08;;;;;;;3.08;1.58;;;;;;;;;;5088012;28;20059;-67
2023/06/05 08:46:37;;;;;;;1.88;1.42;;;;;;;;;;5104219;28;20078;-66
2023/06/05 08:49:09;;;;;;;3.05;1.70;;;;;;;;;;5107908;28;20055;-66
2023/06/05 08:51:36;;;;;;;2.38;1.60;;;;;;;;;;5087750;28;20546;-66
2023/06/05 08:54:09;;;;;;;1.63;1.23;;;;;;;;;;5105157;28;20047;-67
2023/06/05 08:56:37;;;;;;;;;;;;;;;;;;5103357;28;20048;-67
2023/06/05 08:59:05;;;;;;;3.40;1.70;;;;;;;;;;5105231;28;20034;-67
2023/06/05 09:01:33;;;;;;;2.35;1.60;;;;;;;;;;5094586;28;20066;-67
2023/06/05 09:04:00;;;;;;;2.95;1.92;;;;;;;;;;5102674;28;20093;-66
2023/06/05 09:06:28;;;;;;;3.50;1.90;;;;;;;;;;5101828;28;20058;-66
2023/06/05 09:08:56;;;;;;;3.67;1.50;;;;;;;;;;5100739;28;20101;-67
2023/06/05 09:11:26;;;;;;;2.67;1.70;;;;;;;;;;5107353;28;20040;-67
2023/06/05 09:13:54;;;;;;;2.47;1.60;;;;;;;;;;5109054;28;20108;-68
2023/06/05 09:16:22;;;;;;;2.60;1.55;;;;;;;;;;5103623;28;20054;-67
2023/06/05 09:18:53;;;;;;;1.92;1.48;;;;;;;;;;5104959;28;20154;-67
2023/06/05 09:21:21;;;;;;;4.30;1.98;;;;;;;;;;5099436;28;20156;-67
2023/06/05 09:23:48;;;;;;;1.85;1.45;;;;;;;;;;5092438;28;20067;-67
2023/06/05 09:26:16;;;;;;;3.40;1.70;;;;;;;;;;5090163;28;20051;-66
2023/06/05 09:28:57;;;;;;;1.95;1.35;;;;;;;;;;5103184;28;20050;-67
2023/06/05 09:31:24;;;;;;;3.33;1.73;;;;;;;;;;5103155;28;20039;-67
2023/06/05 09:34:00;;;;;;;2.60;1.58;;;;;;;;;;5107649;28;20062;-67
2023/06/05 09:36:30;;;;;;;3.30;1.73;;;;;;;;;;5110005;28;20044;-67
2023/06/05 09:38:57;;;;;;;2.97;1.50;;;;;;;;;;5103729;28;20112;-67
2023/06/05 09:41:25;;;;;;;2.25;1.65;;;;;;;;;;5106026;28;20135;-67
2023/06/05 09:43:52;;;;;;;1.95;1.50;;;;;;;;;;5082661;28;20052;-67
2023/06/05 09:46:21;;;;;;;2.22;1.48;;;;;;;;;;5097481;28;20043;-66
2023/06/05 09:48:54;;;;;;;2.42;1.73;;;;;;;;;;5109596;28;20058;-67
2023/06/05 09:51:21;;;;;;;2.17;1.90;;;;;;;;;;5103403;28;20051;-67
2023/06/05 09:53:50;;;;;;;2.70;1.70;;;;;;;;;;5106497;28;20079;-67
2023/06/05 09:56:18;;;;;;;3.22;2.00;;;;;;;;;;5105175;28;20088;-67
2023/06/05 09:58:46;;;;;;;1.85;1.50;;;;;;;;;;5111013;28;20509;-67
2023/06/05 10:01:16;;;;;;;5.50;2.20;;;;;;;;;;5106713;28;20131;-67
2023/06/05 10:03:46;;;;;;;2.00;1.75;;;;;;;;;;5112858;28;20039;-67
2023/06/05 10:06:14;;;;;;;2.85;1.83;;;;;;;;;;5083829;28;20051;-67
2023/06/05 10:08:41;;;;;;;2.42;1.90;;;;;;;;;;5113005;28;20044;-66
2023/06/05 10:11:09;;;;;;;2.75;1.50;;;;;;;;;;5107894;27;20070;-67
2023/06/05 10:13:36;;;;;;;2.28;1.60;;;;;;;;;;5108100;28;20048;-67
2023/06/05 10:16:04;;;;;;;2.30;1.70;;;;;;;;;;5105177;28;20056;-67
2023/06/05 10:18:32;;;;;;;2.35;1.63;;;;;;;;;;5107341;28;20047;-68
2023/06/05 10:21:00;;;;;;;3.10;1.70;;;;;;;;;;5107504;28;20083;-67
2023/06/05 10:23:28;;;;;;;1.73;1.48;;;;;;;;;;5105449;28;20048;-67
2023/06/05 10:25:57;;;;;;;2.95;1.60;;;;;;;;;;5110480;28;20054;-67
2023/06/05 10:28:32;;;;;;;4.32;1.65;;;;;;;;;;5107622;28;20050;-67
2023/06/05 10:31:15;;;;;;;3.05;1.92;;;;;;;;;;5109727;28;20071;-68
2023/06/05 10:33:51;;;;;;;2.58;1.75;;;;;;;;;;5107084;27;20052;-68
2023/06/05 10:36:28;;;;;;;2.33;1.80;;;;;;;;;;5113334;27;20055;-67
2023/06/05 10:38:56;;;;;;;3.15;2.08;;;;;;;;;;5106026;28;20043;-67
2023/06/05 10:41:23;;;;;;;2.65;1.75;;;;;;;;;;5109233;27;20472;-67
2023/06/05 10:43:51;;;;;;;3.70;1.90;;;;;;;;;;5110049;28;20075;-67
2023/06/05 10:46:36;;;;;;;2.88;1.92;;;;;;;;;;5095530;28;20565;-67
2023/06/05 10:49:07;;;;;;;1.88;1.40;;;;;;;;;;5107568;28;20134;-67
2023/06/05 10:51:37;;;;;;;2.10;1.63;;;;;;;;;;5109227;28;20040;-67
2023/06/05 10:54:06;;;;;;;3.10;1.85;;;;;;;;;;5108917;28;20062;-66
2023/06/05 10:56:52;;;;;;;2.50;2.03;;;;;;;;;;5103538;28;20048;-67
2023/06/05 10:59:21;;;;;;;4.20;1.75;;;;;;;;;;5104062;27;20058;-67
2023/06/05 11:02:19;;;;;;;3.55;1.80;;;;;;;;;;5105768;28;20056;-67
2023/06/05 11:05:06;;;;;;;2.72;1.85;;;;;;;;;;5107777;28;20043;-67
2023/06/05 11:07:35;;;;;;;1.98;1.67;;;;;;;;;;5107488;28;20451;-67
2023/06/05 11:10:09;;;;;;;3.63;2.25;;;;;;;;;;5092483;28;20055;-67
2023/06/05 11:12:56;;;;;;;3.40;2.30;;;;;;;;;;5109505;28;20044;-67
2023/06/05 11:15:38;;;;;;;3.33;1.88;;;;;;;;;;5101545;28;20060;-67
2023/06/05 11:18:23;;;;;;;7.55;2.40;;;;;;;;;;5102917;27;20055;-68
2023/06/05 11:20:51;;;;;;;3.25;2.13;;;;;;;;;;5104368;28;20070;-67
2023/06/05 11:23:21;;;;;;;4.75;2.90;;;;;;;;;;5106800;28;20507;-67
2023/06/05 11:25:50;;;;;;;3.97;2.55;;;;;;;;;;5089297;28;20044;-68
2023/06/05 11:28:38;;;;;;;8.70;2.38;;;;;;;;;;5087028;28;20043;-67
2023/06/05 11:31:05;;;;;;;2.95;2.15;;;;;;;;;;5109304;28;20498;-67
2023/06/05 11:33:32;;;;;;;2.75;2.35;;;;;;;;;;5085441;28;20086;-67
2023/06/05 11:36:02;;;;;;;4.55;2.20;;;;;;;;;;5109217;28;20058;-68
2023/06/05 11:38:31;;;;;;;3.40;2.30;;;;;;;;;;5106179;28;20484;-67
2023/06/05 11:40:58;;;;;;;4.28;2.47;;;;;;;;;;5104353;28;20483;-68
2023/06/05 11:43:25;;;;;;;3.13;2.25;;;;;;;;;;5105734;27;20506;-67
2023/06/05 11:45:53;;;;;;;3.40;2.30;;;;;;;;;;5109608;28;20055;-67
2023/06/05 11:48:21;;;;;;;3.85;2.50;;;;;;;;;;5092720;28;20096;-68
2023/06/05 11:50:55;;;;;;;3.05;2.75;;;;;;;;;;5102715;28;20051;-67
2023/06/05 11:53:22;;;;;;;4.38;2.80;;;;;;;;;;5107251;28;20498;-67
2023/06/05 11:56:05;;;;;;;3.33;2.30;;;;;;;;;;5108061;27;20532;-67
2023/06/05 11:58:35;;;;;;;4.88;2.72;;;;;;;;;;5110902;28;20128;-67
2023/06/05 12:01:07;;;;;;;3.63;2.83;;;;;;;;;;5109160;28;20441;-68
2023/06/05 12:03:35;;;;;;;3.20;2.33;;;;;;;;;;5104940;28;20050;-67
2023/06/05 12:06:03;;;;;;;3.10;2.00;;;;;;;;;;5108160;28;20515;-67
2023/06/05 12:08:32;;;;;;;3.67;2.33;;;;;;;;;;5092242;28;20133;-68
2023/06/05 12:11:01;;;;;;;3.55;2.25;;;;;;;;;;5088660;28;20069;-68
2023/06/05 12:13:48;;;;;;;3.20;2.35;;;;;;;;;;5088837;28;20055;-67
2023/06/05 12:16:15;;;;;;;2.65;2.00;;;;;;;;;;5102832;28;21175;-67
2023/06/05 12:18:43;;;;;;;3.35;2.28;;;;;;;;;;5099691;28;20575;-68
2023/06/05 12:21:20;;;;;;;3.13;2.30;;;;;;;;;;5110065;28;20135;-67
2023/06/05 12:23:48;;;;;;;3.40;2.00;;;;;;;;;;5107390;28;20082;-67
2023/06/05 12:26:17;;;;;;;4.15;2.53;;;;;;;;;;5106280;27;20049;-68
2023/06/05 12:28:46;;;;;;;2.53;2.30;;;;;;;;;;5097940;28;20123;-68
2023/06/05 12:31:28;;;;;;;5.05;2.17;;;;;;;;;;5100938;28;20048;-67
2023/06/05 12:33:55;;;;;;;2.63;2.43;;;;;;;;;;5077868;28;20541;-68
2023/06/05 12:36:22;;;;;;;2.70;2.30;;;;;;;;;;5087443;28;20056;-68
2023/06/05 12:38:50;;;;;;;4.72;2.30;;;;;;;;;;5093939;28;20062;-68
2023/06/05 12:41:18;;;;;;;2.92;2.20;;;;;;;;;;5087406;28;20060;-69
2023/06/05 12:43:45;;;;;;;3.15;2.20;;;;;;;;;;5081315;28;20122;-68
2023/06/05 12:46:13;;;;;;;3.13;2.20;;;;;;;;;;5086020;28;20041;-68
2023/06/05 12:48:40;;;;;;;3.10;2.00;;;;;;;;;;5087909;28;20416;-68
2023/06/05 12:51:08;;;;;;;3.97;2.28;;;;;;;;;;5079778;28;20101;-69
2023/06/05 12:53:35;;;;;;;2.05;1.80;;;;;;;;;;5088345;28;20043;-68
2023/06/05 12:56:02;;;;;;;2.15;1.90;;;;;;;;;;5077962;28;20067;-69
2023/06/05 12:58:31;;;;;;;2.88;2.58;;;;;;;;;;5083762;28;20047;-68
2023/06/05 13:00:58;;;;;;;3.63;2.15;;;;;;;;;;5084129;28;20051;-68
2023/06/05 13:03:25;;;;;;;4.07;1.95;;;;;;;;;;5085501;28;20044;-68
2023/06/05 13:05:53;;;;;;;3.10;2.17;;;;;;;;;;5086800;28;20052;-68
2023/06/05 13:08:20;;;;;;;3.75;1.80;;;;;;;;;;5082792;28;20055;-68
2023/06/05 13:10:47;;;;;;;2.70;2.08;;;;;;;;;;5077678;28;20052;-68
2023/06/05 13:13:16;;;;;;;2.58;1.88;;;;;;;;;;5082372;28;20052;-68
2023/06/05 13:15:45;;;;;;;2.63;2.13;;;;;;;;;;5080899;28;20052;-69
2023/06/05 13:18:12;;;;;;;2.35;1.70;;;;;;;;;;5083972;28;20348;-69
2023/06/05 13:20:40;;;;;;;2.85;2.03;;;;;;;;;;5082617;28;20141;-68
2023/06/05 13:23:07;;;;;;;2.95;2.17;;;;;;;;;;5085380;28;20127;-67
2023/06/05 13:25:34;;;;;;;3.10;2.45;;;;;;;;;;5085920;28;20115;-66
2023/06/05 13:28:02;;;;;;;2.72;2.05;;;;;;;;;;5084196;28;20044;-67
2023/06/05 13:30:29;;;;;;;2.63;1.90;;;;;;;;;;5081545;28;20062;-67
2023/06/05 13:32:58;;;;;;;2.50;2.00;;;;;;;;;;5090165;28;20052;-67
2023/06/05 13:35:25;;;;;;;3.90;2.40;;;;;;;;;;5101856;28;20047;-67
2023/06/05 13:37:52;;;;;;;3.88;2.17;;;;;;;;;;5109856;28;20043;-68
2023/06/05 13:40:20;;;;;;;4.00;2.70;;;;;;;;;;5112583;28;20040;-67
2023/06/05 13:42:48;;;;;;;3.58;2.42;;;;;;;;;;5106729;28;20052;-67
2023/06/05 13:45:15;;;;;;;2.80;2.50;;;;;;;;;;5103003;28;20116;-67
2023/06/05 13:47:42;;;;;;;2.42;2.20;;;;;;;;;;5103257;28;20313;-67
2023/06/05 13:50:11;;;;;;;2.53;2.20;;;;;;;;;;5094596;28;20063;-67
2023/06/05 13:52:39;;;;;;;4.15;2.10;;;;;;;;;;5105353;28;20048;-67
2023/06/05 13:55:07;;;;;;;3.50;2.00;;;;;;;;;;5105494;27;20495;-67
2023/06/05 13:57:35;;;;;;;3.35;2.60;;;;;;;;;;5100381;28;20077;-67
2023/06/05 14:00:02;;;;;;;4.10;2.13;;;;;;;;;;5109209;28;20108;-67
2023/06/05 14:02:29;;;;;;;3.30;2.60;;;;;;;;;;5088074;28;20398;-66
2023/06/05 14:04:57;;;;;;;3.35;2.03;;;;;;;;;;5112648;28;20062;-65
2023/06/05 14:07:25;;;;;;;4.80;2.40;;;;;;;;;;5107602;28;20054;-66
2023/06/05 14:09:53;;;;;;;3.92;2.28;;;;;;;;;;5113601;28;20058;-66
2023/06/05 14:12:20;;;;;;;2.50;1.80;;;;;;;;;;5105157;28;20057;-66
2023/06/05 14:14:47;;;;;;;3.53;2.00;;;;;;;;;;5106622;28;20052;-66
2023/06/05 14:17:15;;;;;;;2.95;2.13;;;;;;;;;;5107660;28;20051;-66
2023/06/05 14:19:43;;;;;;;2.80;1.90;;;;;;;;;;5107711;28;20047;-66
2023/06/05 14:22:10;;;;;;;3.67;2.20;;;;;;;;;;5095709;28;20498;-66
2023/06/05 14:24:39;;;;;;;3.38;1.95;;;;;;;;;;5109090;27;20043;-66
2023/06/05 14:27:07;;;;;;;2.58;2.00;;;;;;;;;;5108769;27;20401;-66
2023/06/05 14:29:35;;;;;;;3.40;1.90;;;;;;;;;;5111745;27;20054;-66
2023/06/05 14:32:03;;;;;;;2.35;2.00;;;;;;;;;;5102525;28;20067;-66
2023/06/05 14:34:30;;;;;;;2.00;1.80;;;;;;;;;;5107550;28;20051;-66
2023/06/05 14:36:57;;;;;;;3.80;2.25;;;;;;;;;;5110300;28;20048;-66
2023/06/05 14:39:25;;;;;;;3.85;1.90;;;;;;;;;;5107967;28;20389;-63
2023/06/05 14:41:53;;;;;;;2.20;1.98;;;;;;;;;;5106972;28;21466;-63
2023/06/05 14:44:20;;;;;;;2.63;2.10;;;;;;;;;;5111372;28;20048;-63
2023/06/05 14:46:48;;;;;;;2.58;1.90;;;;;;;;;;5100533;28;20371;-63
2023/06/05 14:49:15;;;;;;;3.08;2.10;;;;;;;;;;5106895;28;20048;-63
2023/06/05 14:51:42;;;;;;;18.75;11.75;;;;;;;;;;5108276;28;20040;-63